RYR496E LEZL-GCFV
Flight info
| Callsign | RYR496E |
|---|---|
| Flight time | 1h 55m |
| Altitude | 35000 |
| Route | CLANA N857 KORNO/N0446F370 UN857 TERTO |
| Aircraft | B38M/M-SADE3FGILRWY/SB1 |
Departure
| Time | 2026-04-29 11:16 |
|---|---|
| Airport | Seville Airport (LEZL) |
Arrival
| Time | 2026-04-29 13:12 |
|---|---|
| Airport | Fuerteventura Airport (GCFV) |
| Time | Latitude | Longitude | Altitude | Speed | Heading |
|---|---|---|---|---|---|
| 2026-04-29 10:59 | 37.42122 | -5.90064 | 97 ft | 0 kts | 354° |
| 2026-04-29 11:07 | 37.42098 | -5.90058 | 96 ft | 4 kts | 340° |
| 2026-04-29 11:07 | 37.42074 | -5.90043 | 99 ft | 4 kts | 321° |
| 2026-04-29 11:07 | 37.42057 | -5.90019 | 98 ft | 4 kts | 295° |
| 2026-04-29 11:07 | 37.42052 | -5.89999 | 96 ft | 0 kts | 272° |
| 2026-04-29 11:11 | 37.42052 | -5.90003 | 96 ft | 2 kts | 272° |
| 2026-04-29 11:11 | 37.42052 | -5.90048 | 96 ft | 9 kts | 263° |
| 2026-04-29 11:11 | 37.41992 | -5.90082 | 99 ft | 13 kts | 145° |
| 2026-04-29 11:12 | 37.41980 | -5.89954 | 98 ft | 18 kts | 84° |
| 2026-04-29 11:12 | 37.41981 | -5.89763 | 99 ft | 25 kts | 89° |
| 2026-04-29 11:12 | 37.41982 | -5.89547 | 100 ft | 24 kts | 90° |
| 2026-04-29 11:12 | 37.41982 | -5.89344 | 102 ft | 22 kts | 89° |
| 2026-04-29 11:13 | 37.41983 | -5.89160 | 103 ft | 20 kts | 90° |
| 2026-04-29 11:13 | 37.41983 | -5.88974 | 104 ft | 22 kts | 90° |
| 2026-04-29 11:13 | 37.41984 | -5.88793 | 105 ft | 20 kts | 90° |
| 2026-04-29 11:13 | 37.41985 | -5.88624 | 104 ft | 19 kts | 89° |
| 2026-04-29 11:14 | 37.41985 | -5.88451 | 107 ft | 22 kts | 89° |
| 2026-04-29 11:14 | 37.41986 | -5.88232 | 108 ft | 26 kts | 90° |
| 2026-04-29 11:14 | 37.41987 | -5.88006 | 109 ft | 25 kts | 89° |
| 2026-04-29 11:14 | 37.41988 | -5.87790 | 110 ft | 24 kts | 90° |
| 2026-04-29 11:15 | 37.41988 | -5.87583 | 112 ft | 23 kts | 90° |
| 2026-04-29 11:15 | 37.41914 | -5.87431 | 116 ft | 20 kts | 160° |
| 2026-04-29 11:15 | 37.41804 | -5.87480 | 118 ft | 17 kts | 247° |
| 2026-04-29 11:15 | 37.41799 | -5.87705 | 115 ft | 51 kts | 269° |
| 2026-04-29 11:16 | 37.41796 | -5.88433 | 109 ft | 113 kts | 269° |
| 2026-04-29 11:16 | 37.41804 | -5.89622 | 214 ft | 149 kts | 268° |
| 2026-04-29 11:16 | 37.41848 | -5.90994 | 627 ft | 169 kts | 267° |
| 2026-04-29 11:16 | 37.41919 | -5.92425 | 1347 ft | 159 kts | 280° |
| 2026-04-29 11:17 | 37.42384 | -5.93747 | 1793 ft | 174 kts | 294° |
| 2026-04-29 11:17 | 37.43057 | -5.95125 | 2055 ft | 198 kts | 296° |
| 2026-04-29 11:17 | 37.43722 | -5.96728 | 2293 ft | 214 kts | 276° |
| 2026-04-29 11:17 | 37.43875 | -5.98645 | 2661 ft | 229 kts | 270° |
| 2026-04-29 11:18 | 37.44024 | -6.00723 | 3031 ft | 248 kts | 271° |
| 2026-04-29 11:18 | 37.44121 | -6.02916 | 3646 ft | 249 kts | 261° |
| 2026-04-29 11:18 | 37.43585 | -6.04957 | 4237 ft | 249 kts | 233° |
| 2026-04-29 11:18 | 37.42334 | -6.06404 | 4918 ft | 247 kts | 209° |
| 2026-04-29 11:19 | 37.40679 | -6.07003 | 5586 ft | 250 kts | 184° |
| 2026-04-29 11:19 | 37.38925 | -6.06966 | 6229 ft | 255 kts | 180° |
| 2026-04-29 11:19 | 37.37140 | -6.06881 | 6825 ft | 258 kts | 179° |
| 2026-04-29 11:19 | 37.35336 | -6.06773 | 7441 ft | 260 kts | 180° |
| 2026-04-29 11:20 | 37.33525 | -6.06653 | 8129 ft | 261 kts | 180° |
| 2026-04-29 11:20 | 37.31705 | -6.06524 | 8864 ft | 263 kts | 180° |
| 2026-04-29 11:20 | 37.29872 | -6.06388 | 9636 ft | 265 kts | 180° |
| 2026-04-29 11:20 | 37.28012 | -6.06246 | 10290 ft | 273 kts | 180° |
| 2026-04-29 11:21 | 37.26078 | -6.06098 | 10643 ft | 290 kts | 180° |
| 2026-04-29 11:21 | 37.23987 | -6.05935 | 11116 ft | 304 kts | 180° |
| 2026-04-29 11:21 | 37.21885 | -6.05771 | 11812 ft | 308 kts | 180° |
| 2026-04-29 11:21 | 37.19726 | -6.05603 | 12556 ft | 313 kts | 179° |
| 2026-04-29 11:22 | 37.17532 | -6.05434 | 13357 ft | 318 kts | 180° |
| 2026-04-29 11:22 | 37.15347 | -6.05754 | 14034 ft | 318 kts | 201° |
| 2026-04-29 11:22 | 37.13426 | -6.07097 | 14692 ft | 319 kts | 219° |
| 2026-04-29 11:22 | 37.11680 | -6.08850 | 15343 ft | 323 kts | 219° |
| 2026-04-29 11:23 | 37.09934 | -6.10621 | 16175 ft | 323 kts | 220° |
| 2026-04-29 11:23 | 37.08189 | -6.12411 | 16863 ft | 327 kts | 220° |
| 2026-04-29 11:23 | 37.06422 | -6.14238 | 17486 ft | 332 kts | 221° |
| 2026-04-29 11:23 | 37.04630 | -6.16098 | 18099 ft | 336 kts | 221° |
| 2026-04-29 11:24 | 37.02824 | -6.17981 | 18671 ft | 339 kts | 222° |
| 2026-04-29 11:24 | 37.01019 | -6.19903 | 19219 ft | 342 kts | 222° |
| 2026-04-29 11:24 | 36.99199 | -6.21838 | 19769 ft | 344 kts | 222° |
| 2026-04-29 11:24 | 36.97368 | -6.23782 | 20273 ft | 347 kts | 223° |
| 2026-04-29 11:25 | 36.95523 | -6.25740 | 20791 ft | 349 kts | 223° |
| 2026-04-29 11:25 | 36.93664 | -6.27711 | 21298 ft | 352 kts | 223° |
| 2026-04-29 11:25 | 36.91791 | -6.29694 | 21807 ft | 354 kts | 223° |
| 2026-04-29 11:25 | 36.89905 | -6.31691 | 22291 ft | 357 kts | 223° |
| 2026-04-29 11:26 | 36.86089 | -6.35726 | 23234 ft | 362 kts | 223° |
| 2026-04-29 11:26 | 36.84160 | -6.37765 | 23654 ft | 364 kts | 223° |
| 2026-04-29 11:26 | 36.82226 | -6.39806 | 24013 ft | 366 kts | 223° |
| 2026-04-29 11:27 | 36.80276 | -6.41863 | 24313 ft | 368 kts | 224° |
| 2026-04-29 11:27 | 36.78310 | -6.43936 | 24617 ft | 370 kts | 224° |
| 2026-04-29 11:27 | 36.76342 | -6.46010 | 24933 ft | 372 kts | 224° |
| 2026-04-29 11:27 | 36.74390 | -6.48065 | 25246 ft | 373 kts | 224° |
| 2026-04-29 11:28 | 36.72407 | -6.50151 | 25555 ft | 374 kts | 224° |
| 2026-04-29 11:28 | 36.70416 | -6.52245 | 25824 ft | 375 kts | 224° |
| 2026-04-29 11:28 | 36.68416 | -6.54345 | 26100 ft | 377 kts | 224° |
| 2026-04-29 11:28 | 36.66410 | -6.56452 | 26356 ft | 378 kts | 224° |
| 2026-04-29 11:29 | 36.64393 | -6.58567 | 26599 ft | 379 kts | 224° |
| 2026-04-29 11:29 | 36.62376 | -6.60683 | 26839 ft | 381 kts | 224° |
| 2026-04-29 11:29 | 36.60343 | -6.62812 | 27073 ft | 382 kts | 224° |
| 2026-04-29 11:29 | 36.58307 | -6.64944 | 27288 ft | 383 kts | 224° |
| 2026-04-29 11:30 | 36.56265 | -6.67081 | 27509 ft | 384 kts | 224° |
| 2026-04-29 11:30 | 36.54214 | -6.69225 | 27699 ft | 386 kts | 224° |
| 2026-04-29 11:30 | 36.52158 | -6.71374 | 27904 ft | 387 kts | 224° |
| 2026-04-29 11:30 | 36.50087 | -6.73518 | 28099 ft | 388 kts | 223° |
| 2026-04-29 11:31 | 36.48008 | -6.75662 | 28289 ft | 389 kts | 223° |
| 2026-04-29 11:31 | 36.45923 | -6.77813 | 28463 ft | 390 kts | 223° |
| 2026-04-29 11:31 | 36.43837 | -6.79963 | 28639 ft | 391 kts | 223° |
| 2026-04-29 11:31 | 36.41740 | -6.82122 | 28804 ft | 392 kts | 223° |
| 2026-04-29 11:32 | 36.39635 | -6.84289 | 28968 ft | 393 kts | 223° |
| 2026-04-29 11:32 | 36.37529 | -6.86456 | 29120 ft | 394 kts | 223° |
| 2026-04-29 11:32 | 36.35415 | -6.88628 | 29280 ft | 395 kts | 223° |
| 2026-04-29 11:32 | 36.33298 | -6.90802 | 29413 ft | 396 kts | 223° |
| 2026-04-29 11:33 | 36.31176 | -6.92980 | 29551 ft | 396 kts | 223° |
| 2026-04-29 11:33 | 36.29049 | -6.95162 | 29653 ft | 397 kts | 223° |
| 2026-04-29 11:33 | 36.26927 | -6.97337 | 29815 ft | 397 kts | 223° |
| 2026-04-29 11:33 | 36.24796 | -6.99519 | 29931 ft | 398 kts | 223° |
| 2026-04-29 11:34 | 36.22690 | -7.01674 | 30042 ft | 398 kts | 223° |
| 2026-04-29 11:34 | 36.20548 | -7.03865 | 30136 ft | 399 kts | 223° |
| 2026-04-29 11:34 | 36.16260 | -7.08245 | 30322 ft | 400 kts | 223° |
| 2026-04-29 11:35 | 36.11965 | -7.12626 | 30507 ft | 401 kts | 223° |
| 2026-04-29 11:35 | 36.07654 | -7.17016 | 30664 ft | 402 kts | 223° |
| 2026-04-29 11:36 | 36.03332 | -7.21412 | 30801 ft | 403 kts | 223° |
| 2026-04-29 11:36 | 35.99001 | -7.25810 | 30956 ft | 403 kts | 223° |
| 2026-04-29 11:37 | 35.94670 | -7.30202 | 31098 ft | 404 kts | 223° |
| 2026-04-29 11:37 | 35.90325 | -7.34601 | 31236 ft | 404 kts | 223° |
| 2026-04-29 11:38 | 35.85970 | -7.39005 | 31380 ft | 405 kts | 223° |
| 2026-04-29 11:38 | 35.81601 | -7.43415 | 31539 ft | 406 kts | 223° |
| 2026-04-29 11:39 | 35.77224 | -7.47827 | 31745 ft | 406 kts | 223° |
| 2026-04-29 11:39 | 35.75042 | -7.50025 | 31879 ft | 406 kts | 223° |
| 2026-04-29 11:39 | 35.72857 | -7.52223 | 32022 ft | 406 kts | 223° |
| 2026-04-29 11:40 | 35.70674 | -7.54418 | 32174 ft | 405 kts | 223° |
| 2026-04-29 11:40 | 35.68494 | -7.56608 | 32316 ft | 404 kts | 223° |
| 2026-04-29 11:40 | 35.66316 | -7.58795 | 32440 ft | 404 kts | 223° |
| 2026-04-29 11:40 | 35.64142 | -7.60976 | 32536 ft | 403 kts | 223° |
| 2026-04-29 11:41 | 35.59792 | -7.65336 | 32632 ft | 403 kts | 223° |
| 2026-04-29 11:41 | 35.55451 | -7.69680 | 32717 ft | 403 kts | 223° |
| 2026-04-29 11:42 | 35.51103 | -7.74025 | 32794 ft | 402 kts | 223° |
| 2026-04-29 11:42 | 35.46761 | -7.78358 | 32811 ft | 403 kts | 223° |
| 2026-04-29 11:43 | 35.42440 | -7.82664 | 32872 ft | 403 kts | 223° |
| 2026-04-29 11:43 | 35.38091 | -7.86990 | 32920 ft | 402 kts | 223° |
| 2026-04-29 11:44 | 35.33749 | -7.91305 | 32960 ft | 402 kts | 223° |
| 2026-04-29 11:44 | 35.29402 | -7.95618 | 32952 ft | 402 kts | 223° |
| 2026-04-29 11:45 | 35.25052 | -7.99928 | 32957 ft | 402 kts | 223° |
| 2026-04-29 11:45 | 35.20698 | -8.04236 | 32896 ft | 404 kts | 223° |
| 2026-04-29 11:46 | 35.16328 | -8.08553 | 32938 ft | 404 kts | 223° |
| 2026-04-29 11:46 | 35.11958 | -8.12864 | 32929 ft | 404 kts | 223° |
| 2026-04-29 11:47 | 35.07614 | -8.17143 | 33294 ft | 394 kts | 223° |
| 2026-04-29 11:47 | 35.05503 | -8.19221 | 33540 ft | 388 kts | 223° |
| 2026-04-29 11:47 | 35.03407 | -8.21282 | 33560 ft | 386 kts | 223° |
| 2026-04-29 11:48 | 34.99220 | -8.25396 | 33491 ft | 386 kts | 223° |
| 2026-04-29 11:48 | 34.95735 | -8.28815 | 33407 ft | 387 kts | 223° |
| 2026-04-29 11:49 | 34.91533 | -8.32933 | 33358 ft | 388 kts | 223° |
| 2026-04-29 11:49 | 34.87318 | -8.37058 | 33362 ft | 389 kts | 222° |
| 2026-04-29 11:50 | 34.83099 | -8.41182 | 33371 ft | 389 kts | 222° |
| 2026-04-29 11:50 | 34.78880 | -8.45300 | 33382 ft | 389 kts | 222° |
| 2026-04-29 11:51 | 34.74663 | -8.49410 | 33397 ft | 389 kts | 222° |
| 2026-04-29 11:51 | 34.70475 | -8.53487 | 33824 ft | 377 kts | 222° |
| 2026-04-29 11:52 | 34.68454 | -8.55451 | 34119 ft | 368 kts | 222° |
| 2026-04-29 11:52 | 34.66470 | -8.57380 | 34214 ft | 364 kts | 222° |
| 2026-04-29 11:52 | 34.62521 | -8.61214 | 34208 ft | 364 kts | 222° |
| 2026-04-29 11:53 | 34.60526 | -8.63149 | 34386 ft | 366 kts | 222° |
| 2026-04-29 11:53 | 34.58555 | -8.65060 | 34862 ft | 360 kts | 222° |
| 2026-04-29 11:53 | 34.56596 | -8.66957 | 35083 ft | 362 kts | 222° |
| 2026-04-29 11:53 | 34.54628 | -8.68864 | 35314 ft | 362 kts | 222° |
| 2026-04-29 11:54 | 34.52660 | -8.70767 | 35583 ft | 362 kts | 222° |
| 2026-04-29 11:54 | 34.50722 | -8.72641 | 35839 ft | 361 kts | 222° |
| 2026-04-29 11:54 | 34.48759 | -8.74538 | 36070 ft | 361 kts | 222° |
| 2026-04-29 11:54 | 34.46796 | -8.76434 | 36322 ft | 360 kts | 222° |
| 2026-04-29 11:55 | 34.44837 | -8.78325 | 36554 ft | 360 kts | 222° |
| 2026-04-29 11:55 | 34.42883 | -8.80209 | 36780 ft | 359 kts | 222° |
| 2026-04-29 11:55 | 34.40929 | -8.82093 | 36944 ft | 360 kts | 222° |
| 2026-04-29 11:55 | 34.38959 | -8.83991 | 36981 ft | 364 kts | 222° |
| 2026-04-29 11:56 | 34.34935 | -8.87864 | 36970 ft | 367 kts | 222° |
| 2026-04-29 11:56 | 34.30893 | -8.91750 | 36916 ft | 377 kts | 222° |
| 2026-04-29 11:57 | 34.26745 | -8.95732 | 36974 ft | 384 kts | 222° |
| 2026-04-29 11:57 | 34.22508 | -8.99794 | 36968 ft | 393 kts | 222° |
| 2026-04-29 11:58 | 34.18176 | -9.03942 | 36963 ft | 401 kts | 221° |
| 2026-04-29 11:58 | 34.13777 | -9.08148 | 36944 ft | 405 kts | 221° |
| 2026-04-29 11:59 | 34.09356 | -9.12369 | 36970 ft | 406 kts | 221° |
| 2026-04-29 11:59 | 34.04922 | -9.16598 | 36968 ft | 406 kts | 221° |
| 2026-04-29 12:00 | 34.00494 | -9.20814 | 36973 ft | 406 kts | 221° |
| 2026-04-29 12:00 | 33.96062 | -9.25029 | 36973 ft | 406 kts | 221° |
| 2026-04-29 12:01 | 33.91630 | -9.29238 | 36972 ft | 406 kts | 221° |
| 2026-04-29 12:01 | 33.87221 | -9.33420 | 36971 ft | 406 kts | 221° |
| 2026-04-29 12:02 | 33.82787 | -9.37619 | 36973 ft | 406 kts | 221° |
| 2026-04-29 12:02 | 33.78340 | -9.41825 | 36970 ft | 406 kts | 221° |
| 2026-04-29 12:03 | 33.73894 | -9.46024 | 36972 ft | 406 kts | 221° |
| 2026-04-29 12:03 | 33.69437 | -9.50228 | 36979 ft | 408 kts | 221° |
| 2026-04-29 12:04 | 33.64965 | -9.54441 | 36977 ft | 408 kts | 221° |
| 2026-04-29 12:04 | 33.60497 | -9.58643 | 36979 ft | 408 kts | 221° |
| 2026-04-29 12:05 | 33.55994 | -9.62874 | 36964 ft | 409 kts | 220° |
| 2026-04-29 12:05 | 33.51541 | -9.67051 | 36978 ft | 409 kts | 220° |
| 2026-04-29 12:06 | 33.47055 | -9.71254 | 36974 ft | 409 kts | 220° |
| 2026-04-29 12:06 | 33.42570 | -9.75450 | 36981 ft | 409 kts | 220° |
| 2026-04-29 12:07 | 33.38088 | -9.79638 | 36984 ft | 409 kts | 220° |
| 2026-04-29 12:07 | 33.33599 | -9.83827 | 36976 ft | 409 kts | 220° |
| 2026-04-29 12:08 | 33.29094 | -9.88024 | 36970 ft | 411 kts | 220° |
| 2026-04-29 12:08 | 33.24581 | -9.92224 | 36979 ft | 412 kts | 220° |
| 2026-04-29 12:09 | 33.20057 | -9.96428 | 36978 ft | 412 kts | 220° |
| 2026-04-29 12:09 | 33.15532 | -10.00628 | 36981 ft | 412 kts | 220° |
| 2026-04-29 12:10 | 33.11005 | -10.04824 | 36982 ft | 412 kts | 220° |
| 2026-04-29 12:10 | 33.06479 | -10.09013 | 36985 ft | 412 kts | 220° |
| 2026-04-29 12:11 | 33.01948 | -10.13201 | 36976 ft | 412 kts | 220° |
| 2026-04-29 12:11 | 32.97415 | -10.17385 | 36976 ft | 412 kts | 220° |
| 2026-04-29 12:12 | 32.92881 | -10.21566 | 36972 ft | 413 kts | 220° |
| 2026-04-29 12:12 | 32.88355 | -10.25732 | 36982 ft | 414 kts | 220° |
| 2026-04-29 12:13 | 32.83770 | -10.29948 | 36983 ft | 414 kts | 220° |
| 2026-04-29 12:13 | 32.79239 | -10.34108 | 36982 ft | 414 kts | 220° |
| 2026-04-29 12:14 | 32.74675 | -10.38293 | 36981 ft | 414 kts | 220° |
| 2026-04-29 12:14 | 32.70110 | -10.42474 | 36974 ft | 415 kts | 220° |
| 2026-04-29 12:15 | 32.65536 | -10.46657 | 36986 ft | 415 kts | 220° |
| 2026-04-29 12:15 | 32.60959 | -10.50838 | 36988 ft | 415 kts | 220° |
| 2026-04-29 12:16 | 32.56380 | -10.55014 | 36985 ft | 415 kts | 220° |
| 2026-04-29 12:16 | 32.51795 | -10.59191 | 36985 ft | 416 kts | 220° |
| 2026-04-29 12:17 | 32.47193 | -10.63377 | 36989 ft | 418 kts | 220° |
| 2026-04-29 12:17 | 32.42583 | -10.67565 | 36969 ft | 418 kts | 220° |
| 2026-04-29 12:18 | 32.37964 | -10.71756 | 36988 ft | 419 kts | 220° |
| 2026-04-29 12:18 | 32.33341 | -10.75946 | 36988 ft | 419 kts | 220° |
| 2026-04-29 12:19 | 32.28718 | -10.80128 | 36988 ft | 419 kts | 220° |
| 2026-04-29 12:19 | 32.24088 | -10.84313 | 36988 ft | 419 kts | 220° |
| 2026-04-29 12:20 | 32.19458 | -10.88492 | 36991 ft | 419 kts | 220° |
| 2026-04-29 12:20 | 32.14825 | -10.92668 | 36991 ft | 419 kts | 220° |
| 2026-04-29 12:21 | 32.10188 | -10.96842 | 36987 ft | 421 kts | 220° |
| 2026-04-29 12:21 | 32.05556 | -11.01006 | 36988 ft | 421 kts | 220° |
| 2026-04-29 12:22 | 32.00894 | -11.05192 | 36991 ft | 421 kts | 220° |
| 2026-04-29 12:22 | 31.96229 | -11.09375 | 36991 ft | 421 kts | 220° |
| 2026-04-29 12:23 | 31.91562 | -11.13553 | 36991 ft | 421 kts | 220° |
| 2026-04-29 12:23 | 31.86896 | -11.17727 | 36991 ft | 421 kts | 220° |
| 2026-04-29 12:24 | 31.82226 | -11.21897 | 36985 ft | 421 kts | 220° |
| 2026-04-29 12:24 | 31.77555 | -11.26064 | 36991 ft | 421 kts | 220° |
| 2026-04-29 12:25 | 31.72882 | -11.30226 | 36993 ft | 421 kts | 220° |
| 2026-04-29 12:26 | 31.65861 | -11.36471 | 36992 ft | 423 kts | 220° |
| 2026-04-29 12:26 | 31.61168 | -11.40638 | 36994 ft | 423 kts | 220° |
| 2026-04-29 12:27 | 31.56474 | -11.44801 | 36997 ft | 423 kts | 220° |
| 2026-04-29 12:27 | 31.51784 | -11.48954 | 36996 ft | 422 kts | 220° |
| 2026-04-29 12:28 | 31.47099 | -11.53097 | 36997 ft | 422 kts | 220° |
| 2026-04-29 12:28 | 31.42413 | -11.57237 | 36990 ft | 422 kts | 220° |
| 2026-04-29 12:29 | 31.37726 | -11.61372 | 36987 ft | 422 kts | 220° |
| 2026-04-29 12:29 | 31.33036 | -11.65504 | 36991 ft | 422 kts | 220° |
| 2026-04-29 12:30 | 31.28342 | -11.69635 | 36990 ft | 422 kts | 220° |
| 2026-04-29 12:30 | 31.23691 | -11.73722 | 36988 ft | 421 kts | 220° |
| 2026-04-29 12:31 | 31.19016 | -11.77825 | 36994 ft | 420 kts | 220° |
| 2026-04-29 12:31 | 31.14341 | -11.81924 | 36993 ft | 420 kts | 220° |
| 2026-04-29 12:32 | 31.09666 | -11.86017 | 36993 ft | 420 kts | 220° |
| 2026-04-29 12:32 | 31.04988 | -11.90108 | 36994 ft | 420 kts | 220° |
| 2026-04-29 12:33 | 31.00308 | -11.94195 | 36994 ft | 420 kts | 220° |
| 2026-04-29 12:33 | 30.95625 | -11.98279 | 36975 ft | 420 kts | 220° |
| 2026-04-29 12:34 | 30.90960 | -12.02343 | 36990 ft | 419 kts | 220° |
| 2026-04-29 12:34 | 30.86294 | -12.06402 | 36999 ft | 418 kts | 220° |
| 2026-04-29 12:35 | 30.81637 | -12.10449 | 36997 ft | 418 kts | 220° |
| 2026-04-29 12:35 | 30.76981 | -12.14490 | 36993 ft | 418 kts | 220° |
| 2026-04-29 12:36 | 30.72324 | -12.18527 | 36997 ft | 418 kts | 220° |
| 2026-04-29 12:36 | 30.67668 | -12.22558 | 36998 ft | 418 kts | 220° |
| 2026-04-29 12:37 | 30.63798 | -12.25906 | 36989 ft | 416 kts | 220° |
| 2026-04-29 12:37 | 30.59163 | -12.29910 | 37001 ft | 415 kts | 220° |
| 2026-04-29 12:38 | 30.54529 | -12.33910 | 36995 ft | 415 kts | 220° |
| 2026-04-29 12:38 | 30.49896 | -12.37903 | 37001 ft | 415 kts | 220° |
| 2026-04-29 12:39 | 30.45261 | -12.41894 | 37004 ft | 415 kts | 220° |
| 2026-04-29 12:39 | 30.40631 | -12.45875 | 37003 ft | 414 kts | 220° |
| 2026-04-29 12:40 | 30.36001 | -12.49852 | 37009 ft | 414 kts | 220° |
| 2026-04-29 12:40 | 30.31386 | -12.53811 | 37001 ft | 412 kts | 220° |
| 2026-04-29 12:41 | 30.26807 | -12.57734 | 37001 ft | 412 kts | 220° |
| 2026-04-29 12:41 | 30.22199 | -12.61678 | 37001 ft | 412 kts | 220° |
| 2026-04-29 12:42 | 30.17589 | -12.65619 | 37005 ft | 412 kts | 220° |
| 2026-04-29 12:42 | 30.12979 | -12.69555 | 37004 ft | 412 kts | 220° |
| 2026-04-29 12:43 | 30.08158 | -12.73148 | 37014 ft | 415 kts | 213° |
| 2026-04-29 12:43 | 30.03111 | -12.76399 | 37001 ft | 415 kts | 213° |
| 2026-04-29 12:44 | 29.98062 | -12.79629 | 37004 ft | 414 kts | 213° |
| 2026-04-29 12:44 | 29.93030 | -12.82844 | 37004 ft | 414 kts | 213° |
| 2026-04-29 12:45 | 29.87999 | -12.86054 | 37003 ft | 411 kts | 213° |
| 2026-04-29 12:45 | 29.85580 | -12.87596 | 37001 ft | 395 kts | 213° |
| 2026-04-29 12:45 | 29.83221 | -12.89098 | 36912 ft | 382 kts | 213° |
| 2026-04-29 12:45 | 29.80915 | -12.90567 | 36497 ft | 377 kts | 213° |
| 2026-04-29 12:46 | 29.78597 | -12.92042 | 35967 ft | 383 kts | 213° |
| 2026-04-29 12:46 | 29.76257 | -12.93531 | 35473 ft | 386 kts | 213° |
| 2026-04-29 12:46 | 29.73911 | -12.95022 | 34993 ft | 385 kts | 213° |
| 2026-04-29 12:46 | 29.71572 | -12.96508 | 34529 ft | 383 kts | 212° |
| 2026-04-29 12:47 | 29.69247 | -12.97984 | 34056 ft | 381 kts | 212° |
| 2026-04-29 12:47 | 29.66932 | -12.99454 | 33512 ft | 379 kts | 212° |
| 2026-04-29 12:47 | 29.64624 | -13.00918 | 33023 ft | 377 kts | 212° |
| 2026-04-29 12:47 | 29.62334 | -13.02370 | 32570 ft | 374 kts | 212° |
| 2026-04-29 12:48 | 29.60061 | -13.03811 | 32131 ft | 372 kts | 212° |
| 2026-04-29 12:48 | 29.57805 | -13.05240 | 31687 ft | 369 kts | 212° |
| 2026-04-29 12:48 | 29.55562 | -13.06660 | 31261 ft | 367 kts | 212° |
| 2026-04-29 12:48 | 29.53332 | -13.08071 | 30839 ft | 365 kts | 212° |
| 2026-04-29 12:49 | 29.51119 | -13.09470 | 30425 ft | 363 kts | 212° |
| 2026-04-29 12:49 | 29.48911 | -13.10866 | 29996 ft | 361 kts | 212° |
| 2026-04-29 12:49 | 29.46713 | -13.12254 | 29525 ft | 360 kts | 212° |
| 2026-04-29 12:49 | 29.44528 | -13.13634 | 29101 ft | 356 kts | 211° |
| 2026-04-29 12:50 | 29.42370 | -13.14997 | 28721 ft | 352 kts | 211° |
| 2026-04-29 12:50 | 29.40232 | -13.16346 | 28345 ft | 349 kts | 211° |
| 2026-04-29 12:50 | 29.38113 | -13.17682 | 27957 ft | 346 kts | 211° |
| 2026-04-29 12:50 | 29.36000 | -13.18966 | 27566 ft | 344 kts | 207° |
| 2026-04-29 12:51 | 29.33833 | -13.20145 | 27135 ft | 343 kts | 208° |
| 2026-04-29 12:51 | 29.31698 | -13.21319 | 26788 ft | 340 kts | 208° |
| 2026-04-29 12:51 | 29.29577 | -13.22490 | 26434 ft | 337 kts | 208° |
| 2026-04-29 12:51 | 29.27474 | -13.23654 | 26081 ft | 334 kts | 208° |
| 2026-04-29 12:52 | 29.25386 | -13.24811 | 25732 ft | 332 kts | 208° |
| 2026-04-29 12:52 | 29.23312 | -13.25959 | 25382 ft | 330 kts | 208° |
| 2026-04-29 12:52 | 29.21249 | -13.27100 | 25028 ft | 328 kts | 207° |
| 2026-04-29 12:52 | 29.19184 | -13.28231 | 24600 ft | 330 kts | 207° |
| 2026-04-29 12:53 | 29.17122 | -13.29360 | 24244 ft | 329 kts | 207° |
| 2026-04-29 12:53 | 29.15063 | -13.30488 | 23859 ft | 328 kts | 207° |
| 2026-04-29 12:53 | 29.13003 | -13.31616 | 23433 ft | 328 kts | 207° |
| 2026-04-29 12:53 | 29.10942 | -13.32744 | 22961 ft | 328 kts | 207° |
| 2026-04-29 12:54 | 29.08911 | -13.33855 | 22538 ft | 327 kts | 207° |
| 2026-04-29 12:54 | 29.06861 | -13.34976 | 22129 ft | 326 kts | 208° |
| 2026-04-29 12:54 | 29.04818 | -13.36092 | 21721 ft | 325 kts | 208° |
| 2026-04-29 12:54 | 29.02782 | -13.37204 | 21324 ft | 324 kts | 208° |
| 2026-04-29 12:55 | 29.00753 | -13.38312 | 20919 ft | 323 kts | 208° |
| 2026-04-29 12:55 | 28.98730 | -13.39416 | 20504 ft | 322 kts | 208° |
| 2026-04-29 12:55 | 28.96708 | -13.40520 | 20111 ft | 322 kts | 208° |
| 2026-04-29 12:55 | 28.94689 | -13.41620 | 19710 ft | 321 kts | 208° |
| 2026-04-29 12:56 | 28.92673 | -13.42719 | 19306 ft | 321 kts | 208° |
| 2026-04-29 12:56 | 28.90658 | -13.43817 | 18905 ft | 321 kts | 208° |
| 2026-04-29 12:56 | 28.88642 | -13.44915 | 18497 ft | 321 kts | 208° |
| 2026-04-29 12:56 | 28.86627 | -13.46012 | 18075 ft | 321 kts | 208° |
| 2026-04-29 12:57 | 28.84613 | -13.47107 | 17637 ft | 320 kts | 208° |
| 2026-04-29 12:57 | 28.82616 | -13.48193 | 17240 ft | 319 kts | 208° |
| 2026-04-29 12:57 | 28.80602 | -13.49288 | 16838 ft | 318 kts | 208° |
| 2026-04-29 12:57 | 28.78610 | -13.50370 | 16429 ft | 317 kts | 208° |
| 2026-04-29 12:58 | 28.76628 | -13.51447 | 16025 ft | 316 kts | 208° |
| 2026-04-29 12:58 | 28.74647 | -13.52523 | 15638 ft | 315 kts | 208° |
| 2026-04-29 12:58 | 28.72669 | -13.53596 | 15243 ft | 314 kts | 208° |
| 2026-04-29 12:58 | 28.70695 | -13.54667 | 14850 ft | 314 kts | 208° |
| 2026-04-29 12:59 | 28.68724 | -13.55736 | 14461 ft | 314 kts | 208° |
| 2026-04-29 12:59 | 28.66780 | -13.56789 | 14081 ft | 313 kts | 208° |
| 2026-04-29 12:59 | 28.64812 | -13.57856 | 13672 ft | 313 kts | 207° |
| 2026-04-29 12:59 | 28.62844 | -13.58922 | 13238 ft | 313 kts | 207° |
| 2026-04-29 13:00 | 28.60880 | -13.59985 | 12847 ft | 312 kts | 207° |
| 2026-04-29 13:00 | 28.58924 | -13.61043 | 12444 ft | 311 kts | 207° |
| 2026-04-29 13:00 | 28.56980 | -13.62095 | 12073 ft | 309 kts | 207° |
| 2026-04-29 13:00 | 28.55034 | -13.63147 | 11673 ft | 308 kts | 207° |
| 2026-04-29 13:01 | 28.53095 | -13.64175 | 11130 ft | 307 kts | 205° |
| 2026-04-29 13:01 | 28.51131 | -13.65137 | 10440 ft | 307 kts | 204° |
| 2026-04-29 13:01 | 28.49172 | -13.66098 | 9800 ft | 305 kts | 204° |
| 2026-04-29 13:01 | 28.47231 | -13.67055 | 9137 ft | 303 kts | 204° |
| 2026-04-29 13:02 | 28.45253 | -13.67840 | 8545 ft | 299 kts | 198° |
| 2026-04-29 13:02 | 28.43292 | -13.68493 | 8141 ft | 289 kts | 197° |
| 2026-04-29 13:02 | 28.41399 | -13.69121 | 7782 ft | 279 kts | 197° |
| 2026-04-29 13:02 | 28.39557 | -13.69732 | 7308 ft | 274 kts | 197° |
| 2026-04-29 13:03 | 28.37733 | -13.70339 | 6788 ft | 273 kts | 197° |
| 2026-04-29 13:03 | 28.35918 | -13.70947 | 6269 ft | 271 kts | 197° |
| 2026-04-29 13:03 | 28.34112 | -13.71543 | 5722 ft | 269 kts | 197° |
| 2026-04-29 13:03 | 28.32314 | -13.72119 | 5189 ft | 268 kts | 197° |
| 2026-04-29 13:04 | 28.30527 | -13.72677 | 4660 ft | 266 kts | 197° |
| 2026-04-29 13:04 | 28.28749 | -13.73228 | 4129 ft | 264 kts | 197° |
| 2026-04-29 13:04 | 28.26987 | -13.73786 | 3597 ft | 263 kts | 197° |
| 2026-04-29 13:04 | 28.25233 | -13.74352 | 3089 ft | 261 kts | 197° |
| 2026-04-29 13:05 | 28.23501 | -13.74964 | 2644 ft | 260 kts | 204° |
| 2026-04-29 13:05 | 28.22068 | -13.76141 | 2570 ft | 252 kts | 228° |
| 2026-04-29 13:05 | 28.21174 | -13.77776 | 2524 ft | 239 kts | 252° |
| 2026-04-29 13:05 | 28.20973 | -13.79576 | 2521 ft | 224 kts | 276° |
| 2026-04-29 13:06 | 28.21358 | -13.81233 | 2525 ft | 215 kts | 289° |
| 2026-04-29 13:06 | 28.21831 | -13.82842 | 2525 ft | 215 kts | 288° |
| 2026-04-29 13:06 | 28.22290 | -13.84459 | 2521 ft | 215 kts | 288° |
| 2026-04-29 13:06 | 28.22901 | -13.85991 | 2487 ft | 213 kts | 309° |
| 2026-04-29 13:07 | 28.24056 | -13.86905 | 2532 ft | 196 kts | 342° |
| 2026-04-29 13:07 | 28.25344 | -13.87047 | 2527 ft | 178 kts | 0° |
| 2026-04-29 13:07 | 28.26567 | -13.87002 | 2497 ft | 175 kts | 0° |
| 2026-04-29 13:07 | 28.27781 | -13.86958 | 2489 ft | 174 kts | 0° |
| 2026-04-29 13:08 | 28.28995 | -13.86916 | 2487 ft | 175 kts | 0° |
| 2026-04-29 13:08 | 28.30209 | -13.86875 | 2494 ft | 175 kts | 0° |
| 2026-04-29 13:08 | 28.31420 | -13.86834 | 2476 ft | 175 kts | 0° |
| 2026-04-29 13:08 | 28.32640 | -13.86793 | 2273 ft | 175 kts | 360° |
| 2026-04-29 13:09 | 28.33841 | -13.86754 | 2076 ft | 174 kts | 0° |
| 2026-04-29 13:09 | 28.34988 | -13.86715 | 1910 ft | 157 kts | 0° |
| 2026-04-29 13:09 | 28.36058 | -13.86680 | 1698 ft | 152 kts | 359° |
| 2026-04-29 13:09 | 28.37110 | -13.86645 | 1482 ft | 151 kts | 360° |
| 2026-04-29 13:10 | 28.38162 | -13.86610 | 1290 ft | 151 kts | 1° |
| 2026-04-29 13:10 | 28.39212 | -13.86579 | 1079 ft | 151 kts | 2° |
| 2026-04-29 13:10 | 28.40261 | -13.86544 | 867 ft | 152 kts | 4° |
| 2026-04-29 13:10 | 28.41316 | -13.86510 | 676 ft | 152 kts | 3° |
| 2026-04-29 13:11 | 28.42373 | -13.86474 | 477 ft | 153 kts | 5° |
| 2026-04-29 13:11 | 28.43445 | -13.86436 | 275 ft | 155 kts | 5° |
| 2026-04-29 13:11 | 28.44514 | -13.86401 | 70 ft | 150 kts | 4° |
| 2026-04-29 13:11 | 28.45445 | -13.86369 | 84 ft | 112 kts | 1° |
| 2026-04-29 13:12 | 28.45823 | -13.86356 | 92 ft | 32 kts | 1° |
| 2026-04-29 13:12 | 28.46040 | -13.86428 | 96 ft | 33 kts | 340° |
| 2026-04-29 13:12 | 28.46127 | -13.86536 | 101 ft | 10 kts | 214° |
| 2026-04-29 13:12 | 28.46047 | -13.86544 | 102 ft | 14 kts | 183° |
| 2026-04-29 13:13 | 28.45921 | -13.86549 | 101 ft | 23 kts | 182° |
| 2026-04-29 13:13 | 28.45739 | -13.86555 | 101 ft | 28 kts | 181° |
| 2026-04-29 13:13 | 28.45536 | -13.86560 | 98 ft | 28 kts | 182° |
| 2026-04-29 13:13 | 28.45375 | -13.86586 | 101 ft | 9 kts | 230° |
| 2026-04-29 13:14 | 28.45371 | -13.86652 | 101 ft | 9 kts | 272° |
| 2026-04-29 13:14 | 28.45358 | -13.86724 | 101 ft | 10 kts | 218° |
| 2026-04-29 13:14 | 28.45283 | -13.86740 | 101 ft | 12 kts | 199° |
| 2026-04-29 13:14 | 28.45270 | -13.86803 | 101 ft | 7 kts | 272° |
| 2026-04-29 13:15 | 28.45270 | -13.86831 | 101 ft | 3 kts | 271° |
| 2026-04-29 13:15 | 28.45270 | -13.86835 | 101 ft | 0 kts | 271° |